Time;durP1;ratioP1;P1;durP2;ratioP2;P2;SDS_P1;SDS_P2;PMS_P1;PMS_P2;Temp;Humidity;BMP_temperature;BMP_pressure;BME280_temperature;BME280_humidity;BME280_pressure;Samples;Min_cycle;Max_cycle;Signal;HPM_P1;HPM_P2
2021/11/14 00:00:34;;;;;;;19.73;11.18;;;9.10;92.10;;;;;;4976572;28;20049;-67
2021/11/14 00:03:02;;;;;;;17.77;11.45;;;9.00;92.20;;;;;;4966452;28;20046;-66
2021/11/14 00:05:28;;;;;;;16.58;10.23;;;9.10;92.00;;;;;;4972382;28;20062;-67
2021/11/14 00:07:53;;;;;;;14.77;9.82;;;9.10;92.00;;;;;;4971881;28;20034;-67
2021/11/14 00:10:19;;;;;;;17.17;10.35;;;9.10;92.10;;;;;;4976031;28;20034;-66
2021/11/14 00:12:45;;;;;;;16.95;10.82;;;9.10;92.20;;;;;;4972517;28;20053;-66
2021/11/14 00:15:11;;;;;;;17.77;10.63;;;9.10;92.20;;;;;;4974400;28;20050;-67
2021/11/14 00:17:48;;;;;;;16.75;9.43;;;9.10;92.20;;;;;;4967678;28;20030;-67
2021/11/14 00:20:14;;;;;;;14.05;8.82;;;9.10;92.10;;;;;;4993298;28;20851;-68
2021/11/14 00:22:40;;;;;;;14.23;9.27;;;9.10;92.10;;;;;;4975538;28;20039;-66
2021/11/14 00:25:07;;;;;;;14.52;10.45;;;9.10;92.10;;;;;;4970554;28;20398;-67
2021/11/14 00:27:33;;;;;;;15.65;9.82;;;9.10;92.10;;;;;;4964833;28;20042;-68
2021/11/14 00:29:59;;;;;;;16.77;9.43;;;9.10;92.00;;;;;;4980425;28;20651;-67
2021/11/14 00:32:25;;;;;;;16.95;9.25;;;9.00;92.00;;;;;;4980365;28;20060;-67
2021/11/14 00:34:52;;;;;;;18.38;10.38;;;9.00;92.10;;;;;;4971468;28;20034;-66
2021/11/14 00:37:21;;;;;;;17.10;10.52;;;9.00;92.20;;;;;;4970401;28;20062;-65
2021/11/14 00:39:47;;;;;;;14.85;8.90;;;9.00;92.20;;;;;;4978030;28;20479;-67
2021/11/14 00:42:14;;;;;;;16.83;9.55;;;9.00;92.20;;;;;;4967627;28;20089;-67
2021/11/14 00:44:40;;;;;;;15.23;9.65;;;9.00;92.30;;;;;;4970826;28;20038;-67
2021/11/14 00:47:06;;;;;;;14.57;9.85;;;9.00;92.30;;;;;;4977803;28;20037;-67
2021/11/14 00:49:33;;;;;;;16.25;9.38;;;9.00;92.20;;;;;;4977107;28;20026;-66
2021/11/14 00:51:59;;;;;;;14.88;9.27;;;9.00;92.40;;;;;;4971797;28;20049;-67
2021/11/14 00:54:24;;;;;;;14.63;9.90;;;9.00;92.20;;;;;;4966324;28;20019;-67
2021/11/14 00:56:50;;;;;;;16.25;9.52;;;9.00;92.30;;;;;;4964838;28;20039;-67
2021/11/14 00:59:16;;;;;;;18.35;11.82;;;9.00;92.30;;;;;;4963837;28;20030;-66
2021/11/14 01:01:41;;;;;;;15.43;10.13;;;9.10;92.20;;;;;;4951973;28;20050;-66
2021/11/14 01:04:08;;;;;;;20.05;11.23;;;9.10;92.20;;;;;;4965119;28;20874;-67
2021/11/14 01:06:34;;;;;;;16.92;10.38;;;9.00;92.20;;;;;;4968417;28;20848;-67
2021/11/14 01:09:00;;;;;;;14.25;8.82;;;9.10;92.20;;;;;;4985436;28;20113;-67
2021/11/14 01:11:28;;;;;;;16.33;10.05;;;9.10;92.20;;;;;;4971614;28;20042;-67
2021/11/14 01:13:54;;;;;;;17.95;10.60;;;9.10;92.20;;;;;;4967325;28;20089;-66
2021/11/14 01:16:21;;;;;;;16.10;9.10;;;9.10;92.20;;;;;;4974142;28;20034;-66
2021/11/14 01:18:47;;;;;;;17.05;10.15;;;9.10;92.40;;;;;;4972521;28;20038;-67
2021/11/14 01:21:16;;;;;;;16.02;10.13;;;9.00;92.30;;;;;;4971146;28;20038;-66
2021/11/14 01:23:43;;;;;;;15.00;9.75;;;9.10;92.30;;;;;;4977712;28;20032;-67
2021/11/14 01:26:09;;;;;;;16.50;9.23;;;9.00;92.30;;;;;;4978154;28;20034;-67
2021/11/14 01:28:35;;;;;;;14.68;9.20;;;9.10;92.40;;;;;;4971219;28;20569;-67
2021/11/14 01:31:01;;;;;;;17.17;10.27;;;9.00;92.50;;;;;;4969404;28;20101;-66
2021/11/14 01:33:28;;;;;;;15.82;9.65;;;9.00;92.20;;;;;;4968613;28;20045;-66
2021/11/14 01:35:55;;;;;;;16.35;10.30;;;9.00;92.20;;;;;;4968032;28;20742;-66
2021/11/14 01:38:22;;;;;;;18.77;11.52;;;9.00;92.30;;;;;;4974805;28;20081;-66
2021/11/14 01:40:52;;;;;;;18.13;10.60;;;9.00;92.30;;;;;;4972401;28;20038;-66
2021/11/14 01:43:22;;;;;;;19.92;10.65;;;9.00;92.20;;;;;;4975531;28;20146;-68
2021/11/14 01:45:49;;;;;;;15.65;9.80;;;9.00;92.40;;;;;;4970745;28;20058;-69
2021/11/14 01:48:16;;;;;;;16.40;9.77;;;9.00;92.60;;;;;;4971071;28;20093;-67
2021/11/14 01:50:42;;;;;;;13.65;9.73;;;9.00;92.60;;;;;;4975775;28;20045;-68
2021/11/14 01:53:09;;;;;;;24.20;12.02;;;9.00;92.60;;;;;;4975388;28;20148;-66
2021/11/14 01:55:41;;;;;;;19.80;10.27;;;9.10;92.50;;;;;;4971455;28;20026;-67
2021/11/14 01:58:16;;;;;;;16.15;9.70;;;9.10;92.40;;;;;;4968122;28;20038;-67
2021/11/14 02:00:58;;;;;;;19.13;11.25;;;9.10;92.50;;;;;;4976839;28;20042;-67
2021/11/14 02:03:26;;;;;;;15.23;9.43;;;9.10;92.50;;;;;;4972661;28;20039;-66
2021/11/14 02:05:52;;;;;;;15.95;9.70;;;9.10;92.50;;;;;;4969487;28;20109;-66
2021/11/14 02:08:18;;;;;;;15.10;10.07;;;9.00;92.50;;;;;;4971053;28;20446;-66
2021/11/14 02:10:45;;;;;;;16.40;9.32;;;9.10;92.60;;;;;;4973777;28;20048;-67
2021/11/14 02:13:11;;;;;;;14.00;9.23;;;9.10;92.50;;;;;;4973234;28;20034;-67
2021/11/14 02:15:38;;;;;;;15.15;10.05;;;9.10;92.60;;;;;;4968922;28;20263;-67
2021/11/14 02:18:06;;;;;;;15.30;9.48;;;9.10;92.60;;;;;;4968292;28;20034;-66
2021/11/14 02:20:32;;;;;;;14.40;8.70;;;9.10;92.50;;;;;;4971054;28;20498;-67
2021/11/14 02:22:58;;;;;;;14.20;8.80;;;9.10;92.60;;;;;;4966932;28;20055;-67
2021/11/14 02:25:24;;;;;;;15.45;9.70;;;9.10;92.60;;;;;;4972168;28;20096;-66
2021/11/14 02:27:53;;;;;;;15.15;9.70;;;9.10;92.60;;;;;;4965433;28;20132;-67
2021/11/14 02:30:21;;;;;;;14.95;9.68;;;9.10;92.50;;;;;;4966075;28;20046;-66
2021/11/14 02:32:47;;;;;;;20.00;11.02;;;9.10;92.60;;;;;;4968938;28;20038;-65
2021/11/14 02:35:13;;;;;;;14.40;9.07;;;9.20;92.60;;;;;;4971565;28;20038;-67
2021/11/14 02:37:39;;;;;;;16.35;9.93;;;9.20;92.60;;;;;;4966327;28;20031;-67
2021/11/14 02:40:08;;;;;;;18.63;9.25;;;9.10;92.50;;;;;;4964570;28;20085;-67
2021/11/14 02:42:34;;;;;;;14.57;9.32;;;9.10;92.50;;;;;;4966258;28;20043;-68
2021/11/14 02:45:00;;;;;;;15.93;10.15;;;9.10;92.60;;;;;;4968577;28;20039;-67
2021/11/14 02:47:27;;;;;;;14.52;9.25;;;9.20;92.60;;;;;;4966929;28;20045;-67
2021/11/14 02:49:53;;;;;;;16.35;9.93;;;9.10;92.60;;;;;;4964543;28;20041;-67
2021/11/14 02:52:19;;;;;;;12.60;8.70;;;9.10;92.60;;;;;;4966704;28;20050;-67
2021/11/14 02:54:44;;;;;;;16.00;9.02;;;9.10;92.60;;;;;;4971279;28;20108;-67
2021/11/14 02:57:10;;;;;;;16.10;9.65;;;9.10;92.70;;;;;;4976002;28;20047;-67
2021/11/14 02:59:36;;;;;;;17.05;10.23;;;9.10;92.70;;;;;;4966795;28;20039;-67
2021/11/14 03:02:02;;;;;;;18.15;11.10;;;9.10;92.60;;;;;;4971148;28;20027;-67
2021/11/14 03:04:30;;;;;;;18.30;9.90;;;9.10;92.60;;;;;;4973827;28;20113;-67
2021/11/14 03:06:57;;;;;;;13.52;9.25;;;9.10;92.60;;;;;;4970937;28;20057;-67
2021/11/14 03:09:25;;;;;;;17.30;10.30;;;9.10;92.70;;;;;;4967467;28;20482;-66
2021/11/14 03:11:53;;;;;;;15.43;9.07;;;9.10;92.60;;;;;;4965328;28;20820;-67
2021/11/14 03:14:18;;;;;;;15.55;9.95;;;9.10;92.50;;;;;;4965007;28;20034;-66
2021/11/14 03:16:44;;;;;;;15.32;9.90;;;9.10;92.60;;;;;;4989359;28;20031;-67
2021/11/14 03:19:11;;;;;;;13.73;9.23;;;9.10;92.70;;;;;;4969815;28;20034;-67
2021/11/14 03:21:36;;;;;;;15.52;9.45;;;9.10;92.70;;;;;;4987541;28;20030;-67
2021/11/14 03:24:02;;;;;;;14.98;9.20;;;9.10;92.60;;;;;;4969344;28;20047;-66
2021/11/14 03:26:28;;;;;;;13.60;9.65;;;9.10;92.60;;;;;;4968768;28;20054;-66
2021/11/14 03:28:54;;;;;;;14.93;9.00;;;9.10;92.60;;;;;;4970443;28;20030;-67
2021/11/14 03:31:19;;;;;;;14.30;8.85;;;9.10;92.50;;;;;;4967065;28;20043;-66
2021/11/14 03:33:45;;;;;;;12.93;8.82;;;9.10;92.60;;;;;;4979159;28;20030;-66
2021/11/14 03:36:14;;;;;;;13.32;8.48;;;9.10;92.60;;;;;;4967599;28;20053;-66
2021/11/14 03:38:52;;;;;;;17.27;10.38;;;9.10;92.70;;;;;;4971346;28;20101;-66
2021/11/14 03:41:22;;;;;;;15.25;9.05;;;9.10;92.60;;;;;;4964328;28;20057;-66
2021/11/14 03:43:50;;;;;;;14.30;8.80;;;9.10;92.60;;;;;;4972864;28;20077;-66
2021/11/14 03:46:16;;;;;;;12.60;8.63;;;9.10;92.60;;;;;;4974750;28;20042;-66
2021/11/14 03:48:44;;;;;;;14.07;9.27;;;9.10;92.70;;;;;;4974589;28;20042;-67
2021/11/14 03:51:12;;;;;;;13.00;8.50;;;9.00;92.70;;;;;;4969399;28;20038;-66
2021/11/14 03:53:38;;;;;;;16.08;9.13;;;9.10;92.70;;;;;;4972666;28;20403;-66
2021/11/14 03:56:05;;;;;;;14.88;8.82;;;9.10;92.60;;;;;;4973803;28;20038;-66
2021/11/14 03:58:31;;;;;;;15.70;9.23;;;9.10;92.90;;;;;;4974652;28;20141;-67
2021/11/14 04:00:59;;;;;;;13.25;8.80;;;9.10;92.60;;;;;;4964655;28;20046;-67
2021/11/14 04:03:27;;;;;;;14.90;9.43;;;9.10;92.60;;;;;;4971736;28;20728;-67
2021/11/14 04:05:53;;;;;;;17.08;9.73;;;9.10;92.50;;;;;;4969821;28;20038;-66
2021/11/14 04:08:21;;;;;;;14.13;9.07;;;9.00;92.60;;;;;;4979066;28;20046;-67
2021/11/14 04:10:51;;;;;;;13.65;9.13;;;9.10;92.70;;;;;;4975321;28;20137;-67
2021/11/14 04:13:17;;;;;;;13.05;8.68;;;9.10;92.70;;;;;;4987160;28;20552;-67
2021/11/14 04:15:44;;;;;;;15.25;8.95;;;9.00;92.80;;;;;;4969495;28;20030;-67
2021/11/14 04:18:11;;;;;;;13.02;8.85;;;9.10;92.80;;;;;;4964452;28;20073;-67
2021/11/14 04:20:41;;;;;;;14.18;9.63;;;9.00;92.90;;;;;;4970083;28;20046;-66
2021/11/14 04:23:07;;;;;;;16.58;10.02;;;9.10;92.80;;;;;;4970723;28;20041;-66
2021/11/14 04:25:34;;;;;;;13.90;8.60;;;9.10;92.80;;;;;;4972903;28;20069;-67
2021/11/14 04:28:00;;;;;;;14.38;9.63;;;9.10;92.80;;;;;;4964997;28;20497;-67
2021/11/14 04:30:28;;;;;;;13.05;9.20;;;9.10;92.80;;;;;;4968769;28;20087;-67
2021/11/14 04:32:55;;;;;;;16.48;9.35;;;9.10;92.80;;;;;;4971533;28;20066;-66
2021/11/14 04:35:21;;;;;;;15.35;9.48;;;9.10;92.80;;;;;;4973069;28;20564;-66
2021/11/14 04:37:49;;;;;;;15.98;8.75;;;9.10;92.80;;;;;;4968650;28;20049;-66
2021/11/14 04:40:16;;;;;;;15.13;9.23;;;9.10;92.80;;;;;;4975973;28;20034;-67
2021/11/14 04:42:42;;;;;;;14.88;9.30;;;9.10;92.90;;;;;;4976760;28;20034;-67
2021/11/14 04:45:08;;;;;;;13.48;9.98;;;9.10;93.10;;;;;;4974507;28;20073;-66
2021/11/14 04:47:35;;;;;;;13.95;9.60;;;9.10;92.80;;;;;;4963706;28;20078;-66
2021/11/14 04:50:00;;;;;;;14.65;8.80;;;9.10;92.80;;;;;;4971697;28;20136;-67
2021/11/14 04:52:27;;;;;;;15.48;9.57;;;9.10;92.80;;;;;;4970514;28;20467;-66
2021/11/14 04:54:53;;;;;;;15.98;9.60;;;9.10;92.80;;;;;;4977425;28;20557;-66
2021/11/14 04:57:19;;;;;;;15.23;9.45;;;9.10;92.70;;;;;;4965443;28;20038;-67
2021/11/14 04:59:44;;;;;;;19.17;9.82;;;9.10;92.70;;;;;;4969562;28;20022;-67
2021/11/14 05:02:10;;;;;;;14.43;9.00;;;9.10;92.70;;;;;;4964415;28;20060;-67
2021/11/14 05:04:36;;;;;;;14.20;8.52;;;9.10;92.70;;;;;;4961708;28;20035;-66
2021/11/14 05:07:02;;;;;;;15.10;9.23;;;9.10;92.60;;;;;;4967547;28;21056;-67
2021/11/14 05:09:28;;;;;;;14.13;9.10;;;9.10;92.70;;;;;;4970544;28;20034;-67
2021/11/14 05:11:53;;;;;;;18.38;10.40;;;9.10;92.70;;;;;;4988113;28;20038;-66
2021/11/14 05:14:19;;;;;;;15.07;9.38;;;9.10;92.60;;;;;;4973992;28;20125;-66
2021/11/14 05:16:45;;;;;;;16.30;8.73;;;9.10;92.60;;;;;;4967835;28;20046;-67
2021/11/14 05:19:11;;;;;;;18.65;10.40;;;9.10;92.60;;;;;;4969717;28;20034;-67
2021/11/14 05:21:38;;;;;;;18.95;10.45;;;9.10;92.70;;;;;;4969791;28;20453;-67
2021/11/14 05:24:06;;;;;;;17.75;10.38;;;9.10;92.60;;;;;;4978550;28;20491;-67
2021/11/14 05:26:32;;;;;;;18.85;10.63;;;9.10;92.50;;;;;;4974627;28;20077;-67
2021/11/14 05:28:58;;;;;;;14.30;9.02;;;9.10;92.50;;;;;;4973180;28;20125;-67
2021/11/14 05:31:24;;;;;;;16.48;9.52;;;9.10;92.60;;;;;;4973946;28;20026;-67
2021/11/14 05:33:49;;;;;;;15.70;10.23;;;9.10;92.70;;;;;;4979503;28;20668;-67
2021/11/14 05:36:15;;;;;;;16.63;10.32;;;9.10;92.70;;;;;;4969871;28;20151;-66
2021/11/14 05:38:41;;;;;;;17.85;10.85;;;9.10;92.70;;;;;;4976925;28;20034;-67
2021/11/14 05:41:07;;;;;;;16.73;9.80;;;9.10;92.70;;;;;;4993154;28;20039;-67
2021/11/14 05:43:32;;;;;;;18.70;9.35;;;9.10;92.70;;;;;;4973800;28;20664;-67
2021/11/14 05:45:58;;;;;;;16.60;10.25;;;9.10;92.80;;;;;;4967783;28;20502;-67
2021/11/14 05:48:24;;;;;;;16.80;10.05;;;9.10;92.70;;;;;;4972538;28;20053;-67
2021/11/14 05:50:50;;;;;;;21.02;10.15;;;9.10;92.70;;;;;;4967155;28;20074;-67
2021/11/14 05:53:15;;;;;;;17.67;11.23;;;9.10;92.70;;;;;;4985154;28;20085;-67
2021/11/14 05:55:41;;;;;;;16.88;9.88;;;9.10;92.60;;;;;;4969206;28;20084;-67
2021/11/14 06:01:05;;;;;;;19.05;10.88;;;9.10;92.50;;;;;;4973501;28;20409;-66
2021/11/14 06:03:43;;;;;;;16.77;10.57;;;9.10;92.50;;;;;;4971507;28;20038;-67
2021/11/14 06:06:08;;;;;;;22.15;11.20;;;9.10;92.50;;;;;;4968045;28;20049;-67
2021/11/14 06:08:35;;;;;;;18.13;10.95;;;9.10;92.60;;;;;;4977015;28;20042;-66
2021/11/14 06:11:01;;;;;;;17.95;10.85;;;9.10;92.60;;;;;;4974228;28;20498;-67
2021/11/14 06:13:28;;;;;;;17.80;9.98;;;9.10;92.60;;;;;;4973032;28;20046;-67
2021/11/14 06:15:54;;;;;;;17.60;10.95;;;9.00;92.60;;;;;;4958782;28;20035;-67
2021/11/14 06:18:20;;;;;;;17.77;10.77;;;9.00;92.60;;;;;;4980615;28;20034;-67
2021/11/14 06:20:50;;;;;;;19.50;11.15;;;9.10;92.70;;;;;;4967259;28;20514;-67
2021/11/14 06:23:16;;;;;;;19.20;11.02;;;9.10;92.80;;;;;;4976439;28;20041;-67
2021/11/14 06:25:42;;;;;;;19.20;11.35;;;9.10;92.80;;;;;;4968875;28;20073;-67
2021/11/14 06:28:09;;;;;;;22.45;12.77;;;9.10;92.60;;;;;;4965126;28;20841;-67
2021/11/14 06:30:36;;;;;;;20.48;12.60;;;9.10;92.60;;;;;;4970154;28;20039;-67
2021/11/14 06:33:02;;;;;;;21.10;12.68;;;9.10;92.60;;;;;;4972553;28;20037;-67
2021/11/14 06:35:28;;;;;;;23.60;12.80;;;9.10;92.60;;;;;;4971240;28;20212;-67
2021/11/14 06:37:54;;;;;;;22.20;13.07;;;9.10;92.60;;;;;;4972592;28;20038;-67
2021/11/14 06:40:22;;;;;;;23.88;12.98;;;9.10;92.50;;;;;;4972747;28;20560;-67
2021/11/14 06:42:48;;;;;;;24.00;13.25;;;9.10;92.40;;;;;;4974777;28;20454;-67
2021/11/14 06:45:14;;;;;;;22.70;12.60;;;9.10;92.50;;;;;;4974169;28;20038;-67
2021/11/14 06:47:39;;;;;;;24.35;13.32;;;9.10;92.50;;;;;;4969532;28;20100;-67
2021/11/14 06:50:07;;;;;;;22.85;13.32;;;9.10;92.40;;;;;;4973219;28;20129;-67
2021/11/14 06:52:33;;;;;;;24.77;13.27;;;9.10;92.30;;;;;;4970496;28;20026;-68
2021/11/14 06:54:58;;;;;;;26.52;14.48;;;9.10;92.20;;;;;;4973791;28;20167;-67
2021/11/14 06:57:24;;;;;;;24.77;14.48;;;9.10;92.10;;;;;;4982648;28;20031;-68
2021/11/14 06:59:50;;;;;;;23.77;13.07;;;9.10;92.00;;;;;;4971965;28;20061;-66
2021/11/14 07:02:16;;;;;;;27.45;15.07;;;9.10;92.00;;;;;;4977170;28;20113;-67
2021/11/14 07:04:42;;;;;;;28.05;14.77;;;9.10;91.90;;;;;;4968717;28;20106;-67
2021/11/14 07:07:08;;;;;;;25.17;13.65;;;9.10;91.80;;;;;;4979914;28;20050;-67
2021/11/14 07:09:34;;;;;;;28.77;14.52;;;9.10;91.60;;;;;;4977300;28;20035;-66
2021/11/14 07:12:00;;;;;;;24.27;13.80;;;9.10;91.30;;;;;;4975287;28;20034;-67
2021/11/14 07:14:27;;;;;;;26.08;14.15;;;9.10;91.30;;;;;;4973344;28;20037;-67
2021/11/14 07:16:53;;;;;;;29.92;15.52;;;9.10;90.80;;;;;;4976655;28;20050;-67
2021/11/14 07:19:19;;;;;;;29.08;14.98;;;9.10;90.80;;;;;;4964098;28;20136;-66
2021/11/14 07:21:45;;;;;;;27.80;14.85;;;9.10;91.00;;;;;;4980258;28;20877;-67
2021/11/14 07:24:11;;;;;;;42.20;15.65;;;9.20;90.70;;;;;;4971131;28;20457;-67
2021/11/14 07:26:37;;;;;;;28.40;14.88;;;9.20;90.50;;;;;;4976183;28;20026;-67
2021/11/14 07:29:04;;;;;;;29.05;13.70;;;9.20;90.40;;;;;;4978836;28;20050;-67
2021/11/14 07:31:30;;;;;;;28.63;13.93;;;9.20;90.40;;;;;;4982357;28;20027;-67
2021/11/14 07:33:56;;;;;;;33.63;15.32;;;9.20;90.50;;;;;;4973722;28;20057;-67
2021/11/14 07:36:21;;;;;;;33.75;15.23;;;9.20;90.30;;;;;;4974261;28;20030;-67
2021/11/14 07:38:48;;;;;;;28.08;13.90;;;9.30;90.10;;;;;;4978533;28;20030;-68
2021/11/14 07:41:14;;;;;;;26.00;14.25;;;9.30;89.10;;;;;;4974201;28;20049;-67
2021/11/14 07:43:40;;;;;;;32.38;16.23;;;9.30;89.50;;;;;;4971312;28;20023;-67
2021/11/14 07:46:06;;;;;;;31.95;15.20;;;9.30;88.30;;;;;;4975321;28;20034;-67
2021/11/14 07:48:33;;;;;;;28.77;15.57;;;9.20;88.20;;;;;;4971514;28;20045;-67
2021/11/14 07:50:59;;;;;;;29.27;15.13;;;9.30;88.00;;;;;;4975994;28;20043;-67
2021/11/14 07:53:25;;;;;;;31.80;15.82;;;9.30;88.00;;;;;;4973914;28;20173;-65
2021/11/14 07:55:52;;;;;;;33.22;17.13;;;9.40;87.20;;;;;;4971752;28;20113;-67
2021/11/14 07:58:18;;;;;;;31.30;16.05;;;9.50;87.10;;;;;;4976419;28;20039;-67
2021/11/14 08:00:44;;;;;;;34.10;17.17;;;9.50;85.70;;;;;;4974322;28;20125;-67
2021/11/14 08:03:10;;;;;;;36.97;16.85;;;9.60;85.00;;;;;;4974586;28;20048;-67
2021/11/14 08:05:37;;;;;;;31.58;16.65;;;9.50;85.40;;;;;;4979077;28;20042;-67
2021/11/14 08:08:04;;;;;;;35.45;18.75;;;9.50;85.40;;;;;;4978815;28;20747;-67
2021/11/14 08:10:31;;;;;;;33.47;16.73;;;9.50;86.20;;;;;;4975128;28;20073;-67
2021/11/14 08:12:57;;;;;;;35.10;17.50;;;9.50;85.90;;;;;;4978766;28;20093;-67
2021/11/14 08:15:23;;;;;;;39.80;18.05;;;9.50;85.90;;;;;;4967360;28;20109;-66
2021/11/14 08:17:49;;;;;;;38.33;17.65;;;9.60;85.30;;;;;;4978616;28;20722;-66
2021/11/14 08:20:15;;;;;;;36.90;17.85;;;9.90;85.10;;;;;;4973533;28;20112;-67
2021/11/14 08:22:41;;;;;;;38.88;18.02;;;10.10;84.00;;;;;;4978268;28;20042;-67
2021/11/14 08:25:09;;;;;;;37.17;17.63;;;10.30;83.10;;;;;;4978864;28;20037;-67
2021/11/14 08:27:36;;;;;;;35.28;19.55;;;10.30;81.80;;;;;;4968602;28;20043;-67
2021/11/14 08:30:05;;;;;;;36.72;19.65;;;10.30;81.70;;;;;;4973569;28;20150;-67
2021/11/14 08:32:31;;;;;;;35.03;18.58;;;10.20;81.40;;;;;;4971795;28;20042;-67
2021/11/14 08:34:56;;;;;;;40.50;18.85;;;10.20;82.00;;;;;;4975830;28;20037;-67
2021/11/14 08:37:22;;;;;;;41.08;20.17;;;10.10;81.70;;;;;;4966395;28;20076;-67
2021/11/14 08:39:49;;;;;;;40.35;18.50;;;10.00;82.20;;;;;;4973094;28;20695;-67
2021/11/14 08:42:15;;;;;;;44.17;20.73;;;10.00;82.40;;;;;;4976491;28;20563;-67
2021/11/14 08:44:41;;;;;;;45.25;20.67;;;10.00;82.00;;;;;;4970993;28;20061;-67
2021/11/14 08:47:07;;;;;;;42.70;20.30;;;10.00;81.80;;;;;;4972600;28;20062;-66
2021/11/14 08:49:33;;;;;;;40.15;19.10;;;10.00;82.80;;;;;;4971332;28;20133;-67
2021/11/14 08:51:58;;;;;;;44.63;20.20;;;10.10;82.90;;;;;;4978181;28;20049;-67
2021/11/14 08:54:25;;;;;;;39.80;19.52;;;10.30;82.70;;;;;;4972161;28;20026;-67
2021/11/14 08:56:50;;;;;;;42.97;19.70;;;10.40;82.10;;;;;;4976470;28;20046;-67
2021/11/14 08:59:16;;;;;;;46.42;21.83;;;10.50;81.30;;;;;;4973672;28;20035;-67
2021/11/14 09:01:42;;;;;;;42.58;18.98;;;10.50;80.50;;;;;;4974804;28;20152;-67
2021/11/14 09:04:08;;;;;;;45.63;21.67;;;10.50;80.70;;;;;;4969230;28;20116;-67
2021/11/14 09:06:35;;;;;;;49.83;22.40;;;10.40;80.40;;;;;;4972233;28;20460;-67
2021/11/14 09:09:09;;;;;;;43.33;20.77;;;10.40;81.00;;;;;;4966397;28;20049;-67
2021/11/14 09:11:37;;;;;;;48.42;21.05;;;10.40;81.60;;;;;;4967532;28;20205;-67
2021/11/14 09:14:02;;;;;;;48.78;22.13;;;10.40;81.70;;;;;;4985704;28;20030;-67
2021/11/14 09:16:28;;;;;;;45.15;21.52;;;10.50;81.60;;;;;;4977318;28;20379;-67
2021/11/14 09:18:56;;;;;;;45.00;22.02;;;10.50;80.80;;;;;;4973319;28;20116;-67
2021/11/14 09:21:22;;;;;;;49.65;22.98;;;10.60;81.30;;;;;;4973460;28;20082;-67
2021/11/14 09:23:48;;;;;;;46.33;22.17;;;10.60;81.80;;;;;;4973133;28;20062;-68
2021/11/14 09:26:14;;;;;;;46.53;21.70;;;10.60;81.20;;;;;;4967674;28;20046;-69
2021/11/14 09:28:42;;;;;;;47.40;20.33;;;10.60;80.80;;;;;;4961390;28;20047;-69
2021/11/14 09:31:10;;;;;;;46.20;21.63;;;10.60;80.70;;;;;;4966948;28;20077;-69
2021/11/14 09:33:36;;;;;;;48.22;20.92;;;10.60;81.00;;;;;;4972150;28;20452;-70
2021/11/14 09:36:03;;;;;;;55.65;23.40;;;10.60;81.60;;;;;;4979085;28;20045;-69
2021/11/14 09:38:29;;;;;;;54.13;23.65;;;10.80;81.20;;;;;;4976344;28;20026;-68
2021/11/14 09:40:57;;;;;;;47.53;22.00;;;10.90;80.60;;;;;;4979541;28;20418;-68
2021/11/14 09:43:23;;;;;;;49.25;21.88;;;11.20;79.50;;;;;;4974101;28;20030;-67
2021/11/14 09:45:52;;;;;;;50.70;22.17;;;11.40;78.20;;;;;;4975065;28;20042;-69
2021/11/14 09:48:20;;;;;;;46.17;21.83;;;11.30;77.40;;;;;;4969064;28;20038;-71
2021/11/14 09:50:47;;;;;;;47.25;21.67;;;11.30;77.80;;;;;;4975034;28;20045;-69
2021/11/14 09:53:12;;;;;;;51.70;22.52;;;11.20;77.90;;;;;;4977659;28;20034;-70
2021/11/14 09:55:38;;;;;;;43.53;21.08;;;11.10;78.00;;;;;;4972234;28;20773;-70
2021/11/14 09:58:06;;;;;;;47.22;22.25;;;11.10;79.10;;;;;;4964414;28;20133;-70
2021/11/14 10:00:34;;;;;;;46.30;21.42;;;11.20;79.00;;;;;;4973198;28;20041;-70
2021/11/14 10:03:00;;;;;;;49.92;21.63;;;11.30;79.00;;;;;;4969877;28;20046;-69
2021/11/14 10:05:25;;;;;;;50.30;22.50;;;11.40;78.00;;;;;;4969833;28;20050;-71
2021/11/14 10:08:05;;;;;;;44.90;22.55;;;11.60;78.00;;;;;;4973473;28;20034;-71
2021/11/14 10:10:49;;;;;;;50.83;21.65;;;11.70;77.10;;;;;;4965157;28;20062;-71
2021/11/14 10:13:17;;;;;;;43.90;21.50;;;11.80;77.30;;;;;;4986651;28;20045;-71
2021/11/14 10:15:45;;;;;;;50.35;22.70;;;11.80;76.40;;;;;;4973651;28;20157;-70
2021/11/14 10:18:12;;;;;;;51.33;23.30;;;11.80;76.60;;;;;;4971815;28;21055;-71
2021/11/14 10:20:38;;;;;;;50.83;23.83;;;11.80;76.40;;;;;;4976320;28;20041;-70
2021/11/14 10:23:17;;;;;;;46.80;22.17;;;11.70;75.50;;;;;;4978169;28;20582;-70
2021/11/14 10:25:44;;;;;;;49.65;22.42;;;11.60;77.20;;;;;;4977545;28;20049;-68
2021/11/14 10:28:10;;;;;;;52.20;23.13;;;11.40;77.40;;;;;;4973395;28;20042;-68
2021/11/14 10:30:42;;;;;;;54.60;24.45;;;11.30;76.80;;;;;;4972109;28;20150;-67
2021/11/14 10:33:11;;;;;;;57.22;24.98;;;11.30;77.00;;;;;;4974838;28;20146;-67
2021/11/14 10:35:39;;;;;;;54.42;25.30;;;11.40;77.40;;;;;;4971476;28;20541;-67
2021/11/14 10:38:09;;;;;;;44.28;21.13;;;11.60;77.00;;;;;;4976535;28;20478;-66
2021/11/14 10:40:40;;;;;;;50.90;23.17;;;11.90;76.90;;;;;;4972425;28;20717;-66
2021/11/14 10:43:06;;;;;;;51.97;22.85;;;12.20;76.50;;;;;;4967710;28;20048;-69
2021/11/14 10:45:37;;;;;;;51.08;24.52;;;12.50;73.40;;;;;;4974576;28;20058;-68
2021/11/14 10:48:09;;;;;;;44.30;21.63;;;12.60;73.20;;;;;;4965529;28;20066;-67
2021/11/14 10:50:39;;;;;;;50.80;24.17;;;12.80;73.30;;;;;;4970269;28;20082;-67
2021/11/14 10:53:23;;;;;;;45.55;22.58;;;13.00;73.00;;;;;;4971483;28;20037;-68
2021/11/14 10:55:52;;;;;;;56.40;25.23;;;13.20;71.80;;;;;;4972935;28;20030;-68
2021/11/14 10:58:20;;;;;;;52.33;24.08;;;13.20;70.20;;;;;;4976883;28;20149;-68
2021/11/14 11:00:49;;;;;;;58.00;26.15;;;13.10;69.80;;;;;;4966312;28;20683;-68
2021/11/14 11:03:15;;;;;;;52.55;25.75;;;12.90;71.00;;;;;;4977078;28;20065;-69
2021/11/14 11:05:42;;;;;;;55.08;25.83;;;12.70;71.20;;;;;;4974899;28;20066;-68
2021/11/14 11:08:17;;;;;;;50.47;24.50;;;12.50;71.70;;;;;;4967019;28;20039;-68
2021/11/14 11:10:50;;;;;;;50.05;22.85;;;12.30;73.10;;;;;;4975065;28;20038;-67
2021/11/14 11:13:38;;;;;;;46.15;22.55;;;12.10;74.30;;;;;;4976232;28;20053;-67
2021/11/14 11:16:14;;;;;;;49.42;22.35;;;11.80;75.60;;;;;;4984637;28;20050;-68
2021/11/14 11:18:44;;;;;;;54.40;24.42;;;11.70;76.80;;;;;;4970345;28;20030;-67
2021/11/14 11:21:11;;;;;;;54.03;25.80;;;11.60;76.70;;;;;;4964871;28;20116;-68
2021/11/14 11:23:40;;;;;;;53.08;24.50;;;11.50;76.20;;;;;;4968716;28;20169;-67
2021/11/14 11:26:07;;;;;;;55.92;24.50;;;11.40;76.90;;;;;;4969331;28;20695;-67
2021/11/14 11:28:36;;;;;;;49.45;23.00;;;11.30;78.00;;;;;;4977059;28;20152;-68
2021/11/14 11:31:09;;;;;;;55.10;24.45;;;11.30;78.40;;;;;;4969602;28;20046;-69
2021/11/14 11:33:37;;;;;;;57.20;23.83;;;11.30;78.60;;;;;;4963137;28;20088;-69
2021/11/14 11:36:05;;;;;;;53.00;24.42;;;11.30;79.10;;;;;;4964211;28;20041;-69
2021/11/14 11:38:32;;;;;;;52.85;24.70;;;11.30;79.00;;;;;;4969051;28;20106;-69
2021/11/14 11:41:02;;;;;;;58.10;25.35;;;11.40;78.40;;;;;;4971149;28;20026;-70
2021/11/14 11:43:29;;;;;;;52.38;23.60;;;11.50;77.90;;;;;;4987769;28;20417;-69
2021/11/14 11:46:16;;;;;;;54.40;24.05;;;11.60;78.00;;;;;;4963987;28;20045;-70
2021/11/14 11:48:54;;;;;;;56.35;24.35;;;11.70;78.10;;;;;;4965157;28;20038;-69
2021/11/14 11:51:41;;;;;;;52.88;24.50;;;11.70;77.20;;;;;;4969949;28;20035;-68
2021/11/14 11:54:20;;;;;;;53.67;26.00;;;11.70;76.80;;;;;;4974184;28;20119;-69
2021/11/14 11:57:10;;;;;;;54.85;26.40;;;11.70;76.70;;;;;;4968465;28;20039;-69
2021/11/14 11:59:39;;;;;;;62.55;27.77;;;11.70;77.60;;;;;;4965143;28;20200;-69
2021/11/14 12:02:26;;;;;;;60.55;26.85;;;11.60;77.20;;;;;;4988536;28;20035;-70
2021/11/14 12:04:54;;;;;;;59.72;27.40;;;11.60;77.60;;;;;;4971983;28;20096;-71
2021/11/14 12:07:27;;;;;;;62.85;27.73;;;11.50;77.90;;;;;;4975777;28;20759;-70
2021/11/14 12:09:57;;;;;;;62.33;25.67;;;11.40;77.00;;;;;;4974270;28;20049;-70
2021/11/14 12:12:33;;;;;;;58.65;27.42;;;11.40;78.30;;;;;;4966102;28;20537;-69
2021/11/14 12:15:10;;;;;;;58.55;26.27;;;11.40;77.50;;;;;;4970951;28;20039;-69
2021/11/14 12:17:39;;;;;;;59.90;26.45;;;11.50;77.90;;;;;;4971657;28;20062;-70
2021/11/14 12:20:08;;;;;;;61.85;27.35;;;11.50;77.40;;;;;;4970775;28;20038;-70
2021/11/14 12:22:50;;;;;;;61.22;27.52;;;11.50;77.80;;;;;;4972211;28;20058;-70
2021/11/14 12:25:28;;;;;;;67.65;29.02;;;11.50;76.70;;;;;;4981362;28;20042;-69
2021/11/14 12:28:02;;;;;;;72.45;29.52;;;11.50;77.40;;;;;;4974887;28;20501;-70
2021/11/14 12:30:30;;;;;;;61.50;28.75;;;11.60;77.90;;;;;;4967711;28;20110;-70
2021/11/14 12:32:56;;;;;;;55.33;25.85;;;11.60;78.00;;;;;;4970852;28;20042;-70
2021/11/14 12:35:28;;;;;;;62.13;27.55;;;11.60;77.60;;;;;;4975856;28;20026;-69
2021/11/14 12:38:00;;;;;;;61.65;26.27;;;11.60;77.20;;;;;;4970187;28;20035;-69
2021/11/14 12:40:41;;;;;;;53.90;24.77;;;11.60;76.70;;;;;;4975400;28;20030;-71